Time;durP1;ratioP1;P1;durP2;ratioP2;P2;SDS_P1;SDS_P2;PMS_P1;PMS_P2;Temp;Humidity;BMP_temperature;BMP_pressure;BME280_temperature;BME280_humidity;BME280_pressure;Samples;Min_cycle;Max_cycle;Signal;HPM_P1;HPM_P2
2021/05/12 00:02:20;;;;;;;0.00;0.00;;;13.10;60.00;;;;;;5006898;28;20033;-78
2021/05/12 00:04:46;;;;;;;0.95;0.32;;;13.00;60.00;;;;;;5010050;28;20038;-78
2021/05/12 00:07:12;;;;;;;0.30;0.10;;;13.00;60.00;;;;;;5010025;28;20498;-78
2021/05/12 00:09:38;;;;;;;0.05;0.00;;;12.90;60.00;;;;;;4998410;28;20041;-79
2021/05/12 00:12:05;;;;;;;1.45;0.15;;;13.00;60.10;;;;;;5011678;28;20022;-78
2021/05/12 00:14:31;;;;;;;1.30;0.00;;;12.90;60.10;;;;;;5008740;28;20332;-78
2021/05/12 00:17:00;;;;;;;2.80;0.15;;;12.90;60.20;;;;;;5008777;28;20042;-78
2021/05/12 00:19:27;;;;;;;0.70;0.45;;;12.80;60.20;;;;;;5009059;28;20033;-78
2021/05/12 00:22:29;;;;;;;3.30;0.45;;;12.80;60.30;;;;;;5009506;28;20026;-78
2021/05/12 00:24:39;;;;;;;0.10;0.00;;;12.80;60.40;;;;;;5008257;28;20042;-78
2021/05/12 00:27:06;;;;;;;0.93;0.32;;;12.70;60.30;;;;;;5011934;28;20034;-78
2021/05/12 00:29:32;;;;;;;0.00;0.00;;;12.70;60.40;;;;;;5008544;28;20840;-78
2021/05/12 00:31:58;;;;;;;0.65;0.10;;;12.70;60.40;;;;;;5007410;28;20041;-78
2021/05/12 00:34:25;;;;;;;2.05;0.35;;;12.70;60.50;;;;;;5007137;28;20455;-78
2021/05/12 00:36:51;;;;;;;0.45;0.10;;;12.70;60.50;;;;;;5008849;28;20056;-78
2021/05/12 00:39:17;;;;;;;0.40;0.20;;;12.70;60.60;;;;;;5009548;28;20041;-78
2021/05/12 00:41:43;;;;;;;0.05;0.00;;;12.60;60.60;;;;;;5028899;28;20487;-79
2021/05/12 00:44:19;;;;;;;0.57;0.20;;;12.60;60.60;;;;;;5007391;28;20049;-79
2021/05/12 00:46:46;;;;;;;2.38;0.10;;;12.60;60.70;;;;;;5008533;28;20045;-78
2021/05/12 00:49:12;;;;;;;0.13;0.05;;;12.50;60.60;;;;;;5023049;28;20049;-78
2021/05/12 00:51:38;;;;;;;0.85;0.45;;;12.50;60.70;;;;;;5014017;28;20038;-78
2021/05/12 00:54:05;;;;;;;3.28;0.30;;;12.50;60.80;;;;;;5042294;28;20495;-78
2021/05/12 00:56:32;;;;;;;0.00;0.00;;;12.50;60.90;;;;;;5012321;28;20034;-78
2021/05/12 00:58:58;;;;;;;0.93;0.00;;;12.40;60.90;;;;;;5012063;28;20475;-78
2021/05/12 01:01:24;;;;;;;1.05;0.20;;;12.40;60.90;;;;;;5010409;28;20483;-78
2021/05/12 01:03:50;;;;;;;0.47;0.10;;;12.40;61.00;;;;;;4994493;28;20047;-78
2021/05/12 01:06:25;;;;;;;0.15;0.00;;;12.40;61.10;;;;;;5012330;28;20438;-78
2021/05/12 01:08:51;;;;;;;2.67;0.15;;;12.30;61.10;;;;;;5037886;28;20022;-78
2021/05/12 01:11:17;;;;;;;4.85;0.20;;;12.30;61.10;;;;;;5012153;28;20037;-78
2021/05/12 01:13:44;;;;;;;0.35;0.10;;;12.30;61.10;;;;;;5012198;28;20383;-78
2021/05/12 01:16:11;;;;;;;0.55;0.20;;;12.30;61.10;;;;;;5011607;28;20692;-78
2021/05/12 01:18:38;;;;;;;1.27;0.15;;;12.30;61.20;;;;;;4979341;28;20054;-78
2021/05/12 01:21:08;;;;;;;0.68;0.20;;;12.30;61.20;;;;;;5025832;28;20049;-78
2021/05/12 01:23:35;;;;;;;0.95;0.63;;;12.20;61.20;;;;;;5011100;28;20037;-78
2021/05/12 01:26:04;;;;;;;0.20;0.10;;;12.20;61.30;;;;;;5012637;28;20057;-78
2021/05/12 01:28:35;;;;;;;0.28;0.20;;;12.20;61.40;;;;;;5009066;28;20033;-78
2021/05/12 01:31:09;;;;;;;7.85;0.30;;;12.20;61.40;;;;;;5012441;28;20149;-78
2021/05/12 01:33:39;;;;;;;7.55;0.08;;;12.20;61.50;;;;;;5011759;28;20048;-78
2021/05/12 01:36:05;;;;;;;1.55;0.25;;;12.20;61.50;;;;;;5025436;28;20034;-78
2021/05/12 01:38:31;;;;;;;0.20;0.00;;;12.10;61.40;;;;;;5013251;28;20037;-78
2021/05/12 01:40:58;;;;;;;14.25;0.65;;;12.10;61.50;;;;;;5011694;28;20029;-78
2021/05/12 01:43:24;;;;;;;2.95;0.40;;;12.10;61.60;;;;;;5010759;28;20033;-78
2021/05/12 01:45:50;;;;;;;0.03;0.00;;;12.10;61.60;;;;;;5011251;28;20042;-78
2021/05/12 01:48:16;;;;;;;0.13;0.10;;;12.00;61.70;;;;;;4996627;28;20034;-78
2021/05/12 01:50:43;;;;;;;0.03;0.00;;;12.00;61.80;;;;;;5011674;28;20501;-78
2021/05/12 01:53:11;;;;;;;0.43;0.20;;;12.00;61.80;;;;;;4993587;28;20053;-78
2021/05/12 01:55:37;;;;;;;0.00;0.00;;;12.00;61.80;;;;;;5010841;28;20026;-78
2021/05/12 01:58:03;;;;;;;0.13;0.03;;;12.00;61.80;;;;;;5009596;28;20034;-78
2021/05/12 02:00:36;;;;;;;0.00;0.00;;;12.00;61.90;;;;;;5006930;28;20034;-78
2021/05/12 02:03:04;;;;;;;0.75;0.00;;;12.00;61.90;;;;;;5033784;28;20228;-78
2021/05/12 02:05:31;;;;;;;11.27;1.05;;;12.00;61.90;;;;;;5004906;28;20045;-78
2021/05/12 02:07:58;;;;;;;0.00;0.00;;;12.00;61.90;;;;;;4989378;28;20041;-78
2021/05/12 02:10:24;;;;;;;0.45;0.00;;;12.00;62.00;;;;;;5041975;28;20037;-78
2021/05/12 02:12:51;;;;;;;2.83;0.52;;;12.00;62.00;;;;;;5011009;28;20034;-78
2021/05/12 02:15:17;;;;;;;0.60;0.28;;;12.00;62.00;;;;;;5034576;28;20396;-78
2021/05/12 02:17:44;;;;;;;0.22;0.22;;;12.00;62.00;;;;;;5008924;28;21163;-78
2021/05/12 02:20:11;;;;;;;1.95;0.63;;;12.00;62.10;;;;;;5004926;28;20042;-78
2021/05/12 02:22:37;;;;;;;9.15;0.08;;;12.00;62.10;;;;;;5009966;28;20026;-78
2021/05/12 02:25:04;;;;;;;0.57;0.32;;;12.00;62.20;;;;;;5034884;28;20372;-78
2021/05/12 02:27:30;;;;;;;0.17;0.15;;;11.90;62.20;;;;;;5013123;28;20048;-78
2021/05/12 02:30:00;;;;;;;0.20;0.10;;;11.90;62.30;;;;;;4989871;28;20053;-78
2021/05/12 02:32:30;;;;;;;0.00;0.00;;;11.90;62.30;;;;;;5013925;28;20031;-78
2021/05/12 02:34:56;;;;;;;0.45;0.10;;;11.90;62.50;;;;;;5005254;28;20018;-78
2021/05/12 02:37:23;;;;;;;0.00;0.00;;;11.80;62.60;;;;;;4993882;28;20386;-78
2021/05/12 02:39:49;;;;;;;0.10;0.00;;;11.80;62.80;;;;;;5008431;28;20029;-78
2021/05/12 02:42:15;;;;;;;0.35;0.10;;;11.80;63.00;;;;;;5013344;28;20029;-78
2021/05/12 02:44:41;;;;;;;0.05;0.00;;;11.70;63.10;;;;;;5021837;28;20034;-78
2021/05/12 02:47:08;;;;;;;3.63;0.57;;;11.70;63.10;;;;;;5008595;28;20045;-78
2021/05/12 02:49:34;;;;;;;0.00;0.00;;;11.70;63.20;;;;;;5008479;28;20065;-78
2021/05/12 02:52:00;;;;;;;0.10;0.00;;;11.70;63.20;;;;;;5011275;28;20384;-78
2021/05/12 02:54:26;;;;;;;3.15;0.22;;;11.70;63.40;;;;;;5009899;28;20048;-78
2021/05/12 02:56:52;;;;;;;5.05;0.22;;;11.70;63.50;;;;;;5012547;28;20053;-78
2021/05/12 02:59:18;;;;;;;0.00;0.00;;;11.70;63.50;;;;;;5010286;28;20045;-78
2021/05/12 03:01:44;;;;;;;1.88;0.25;;;11.70;64.30;;;;;;5010029;28;20034;-78
2021/05/12 03:04:10;;;;;;;0.40;0.10;;;11.70;63.50;;;;;;5011121;28;20038;-78
2021/05/12 03:06:36;;;;;;;6.55;0.55;;;11.70;63.40;;;;;;5008767;28;20038;-78
2021/05/12 03:09:04;;;;;;;9.63;1.27;;;11.70;63.40;;;;;;5021711;28;20022;-78
2021/05/12 03:11:30;;;;;;;0.00;0.00;;;11.80;63.50;;;;;;5009961;28;20048;-78
2021/05/12 03:13:56;;;;;;;0.10;0.00;;;11.80;63.60;;;;;;5008168;28;20038;-78
2021/05/12 03:16:22;;;;;;;0.00;0.00;;;11.80;63.70;;;;;;5009149;28;20057;-78
2021/05/12 03:18:48;;;;;;;0.20;0.00;;;11.80;63.60;;;;;;5010012;28;20034;-78
2021/05/12 03:21:14;;;;;;;0.43;0.10;;;11.80;63.60;;;;;;5011123;28;20030;-78
2021/05/12 03:23:40;;;;;;;0.68;0.30;;;11.80;63.60;;;;;;5038556;28;20037;-78
2021/05/12 03:26:07;;;;;;;0.00;0.00;;;11.80;63.60;;;;;;5010250;28;20387;-78
2021/05/12 03:28:33;;;;;;;0.00;0.00;;;11.80;63.60;;;;;;5009948;28;20034;-78
2021/05/12 03:30:59;;;;;;;0.38;0.08;;;11.90;63.60;;;;;;5007679;28;20034;-78
2021/05/12 03:33:25;;;;;;;0.00;0.00;;;11.90;63.60;;;;;;5010655;28;20487;-78
2021/05/12 03:35:51;;;;;;;1.67;0.28;;;12.00;63.60;;;;;;4992411;28;20046;-78
2021/05/12 03:38:17;;;;;;;0.25;0.17;;;12.00;63.50;;;;;;5009410;28;20038;-78
2021/05/12 03:40:43;;;;;;;1.65;0.10;;;12.10;63.50;;;;;;5009056;28;20045;-78
2021/05/12 03:43:09;;;;;;;0.95;0.20;;;12.10;63.50;;;;;;5008788;28;20195;-78
2021/05/12 03:45:35;;;;;;;0.35;0.10;;;12.10;63.50;;;;;;5008814;28;20407;-78
2021/05/12 03:48:02;;;;;;;5.68;0.43;;;12.10;63.50;;;;;;4994784;28;20033;-78
2021/05/12 03:50:28;;;;;;;0.10;0.00;;;12.20;63.60;;;;;;5007595;28;20073;-78
2021/05/12 03:52:54;;;;;;;0.73;0.47;;;12.20;63.60;;;;;;4993730;28;20045;-78
2021/05/12 03:55:21;;;;;;;0.30;0.00;;;12.20;63.70;;;;;;5009889;28;20486;-78
2021/05/12 03:57:48;;;;;;;1.58;0.32;;;12.20;63.70;;;;;;5009675;28;20026;-78
2021/05/12 04:00:14;;;;;;;0.10;0.00;;;12.20;63.80;;;;;;5000945;28;20034;-79
2021/05/12 04:02:41;;;;;;;0.10;0.00;;;12.20;63.80;;;;;;5011573;28;20042;-78
2021/05/12 04:05:07;;;;;;;0.03;0.00;;;12.20;63.80;;;;;;4993293;28;20069;-77
2021/05/12 04:07:34;;;;;;;0.00;0.00;;;12.20;63.90;;;;;;5006501;28;20040;-77
2021/05/12 04:10:00;;;;;;;0.30;0.20;;;12.20;64.00;;;;;;5025351;28;20038;-78
2021/05/12 04:12:26;;;;;;;2.33;0.40;;;12.10;64.00;;;;;;4998966;28;20407;-78
2021/05/12 04:14:52;;;;;;;0.65;0.10;;;12.20;64.00;;;;;;5021216;28;20050;-78
2021/05/12 04:17:18;;;;;;;1.33;0.55;;;12.10;64.10;;;;;;5008199;28;20068;-78
2021/05/12 04:19:44;;;;;;;1.00;0.25;;;12.20;64.20;;;;;;5010322;28;20406;-78
2021/05/12 04:22:10;;;;;;;2.65;0.88;;;12.10;64.20;;;;;;5010449;28;20030;-78
2021/05/12 04:24:36;;;;;;;1.70;0.10;;;12.10;64.20;;;;;;5009572;28;20033;-78
2021/05/12 04:27:03;;;;;;;0.90;0.10;;;12.20;64.30;;;;;;5043640;28;20034;-78
2021/05/12 04:29:29;;;;;;;0.30;0.03;;;12.20;64.30;;;;;;5012757;28;20518;-77
2021/05/12 04:31:55;;;;;;;0.13;0.08;;;12.20;64.40;;;;;;4994652;28;20045;-78
2021/05/12 04:34:21;;;;;;;0.50;0.00;;;12.20;64.40;;;;;;5012971;28;20038;-78
2021/05/12 04:36:47;;;;;;;0.20;0.15;;;12.20;64.40;;;;;;5012993;28;20037;-77
2021/05/12 04:39:13;;;;;;;0.20;0.00;;;12.20;64.40;;;;;;4981138;28;20053;-78
2021/05/12 04:41:39;;;;;;;0.00;0.00;;;12.20;64.40;;;;;;5012917;28;20037;-79
2021/05/12 04:44:06;;;;;;;0.90;0.57;;;12.20;64.50;;;;;;4993125;28;20053;-77
2021/05/12 04:46:32;;;;;;;0.20;0.10;;;12.20;64.40;;;;;;5004869;28;20392;-78
2021/05/12 04:48:58;;;;;;;2.90;0.10;;;12.20;64.40;;;;;;5014554;28;20033;-78
2021/05/12 04:51:24;;;;;;;0.00;0.00;;;12.30;64.50;;;;;;5013828;28;20033;-77
2021/05/12 04:53:50;;;;;;;2.72;0.15;;;12.30;64.40;;;;;;5026072;28;20064;-78
2021/05/12 04:56:16;;;;;;;2.40;0.17;;;12.30;64.40;;;;;;5013651;28;20368;-78
2021/05/12 04:58:42;;;;;;;3.53;0.35;;;12.30;64.40;;;;;;5012619;28;20030;-78
2021/05/12 05:01:08;;;;;;;0.30;0.10;;;12.40;64.50;;;;;;5011768;28;20046;-78
2021/05/12 05:03:40;;;;;;;1.23;0.30;;;12.40;64.40;;;;;;4979420;28;20038;-78
2021/05/12 05:06:07;;;;;;;0.75;0.20;;;12.40;64.40;;;;;;5014989;28;20491;-78
2021/05/12 05:08:33;;;;;;;1.48;0.10;;;12.50;64.50;;;;;;4995636;28;20039;-78
2021/05/12 05:10:59;;;;;;;7.28;0.17;;;12.40;64.50;;;;;;5010755;28;20482;-78
2021/05/12 05:13:25;;;;;;;1.17;0.22;;;12.50;64.60;;;;;;5012590;28;20021;-78
2021/05/12 05:15:51;;;;;;;3.78;0.28;;;12.50;64.60;;;;;;5011796;28;20041;-78
2021/05/12 05:18:17;;;;;;;0.03;0.00;;;12.50;64.60;;;;;;5015026;28;20080;-78
2021/05/12 05:20:43;;;;;;;0.17;0.00;;;12.60;64.70;;;;;;5040938;28;20029;-78
2021/05/12 05:23:09;;;;;;;0.00;0.00;;;12.50;64.70;;;;;;5012211;28;20030;-79
2021/05/12 05:25:35;;;;;;;0.00;0.00;;;12.60;64.80;;;;;;5011919;28;20030;-78
2021/05/12 05:28:01;;;;;;;0.00;0.00;;;12.60;64.80;;;;;;4994039;28;20050;-78
2021/05/12 05:30:27;;;;;;;1.48;0.05;;;12.60;65.00;;;;;;5011547;28;20372;-78
2021/05/12 05:33:00;;;;;;;0.00;0.00;;;12.60;65.00;;;;;;5025599;28;20026;-78
2021/05/12 05:35:26;;;;;;;2.50;0.25;;;12.60;65.10;;;;;;4990150;28;20046;-78
2021/05/12 05:37:52;;;;;;;3.42;0.20;;;12.60;65.00;;;;;;5005715;28;20034;-78
2021/05/12 05:40:18;;;;;;;2.30;0.30;;;12.70;65.00;;;;;;4993180;28;20032;-78
2021/05/12 05:42:44;;;;;;;1.20;0.35;;;12.70;64.90;;;;;;5011943;28;20027;-78
2021/05/12 05:45:11;;;;;;;0.00;0.00;;;12.70;65.00;;;;;;5013125;28;20474;-78
2021/05/12 05:47:37;;;;;;;3.85;0.28;;;12.70;65.00;;;;;;5017004;28;20046;-78
2021/05/12 05:50:04;;;;;;;2.55;0.17;;;12.80;65.10;;;;;;5005445;28;20033;-78
2021/05/12 05:52:30;;;;;;;0.20;0.08;;;12.80;65.20;;;;;;5011544;28;20053;-78
2021/05/12 05:54:56;;;;;;;0.10;0.00;;;12.80;65.20;;;;;;5011988;28;20391;-78
2021/05/12 05:57:22;;;;;;;1.02;0.22;;;12.70;65.10;;;;;;5013081;28;20498;-77
2021/05/12 05:59:48;;;;;;;0.75;0.15;;;12.80;65.20;;;;;;5024383;28;20033;-78
2021/05/12 06:02:14;;;;;;;3.13;0.22;;;12.80;65.50;;;;;;5010293;28;20045;-78
2021/05/12 06:04:40;;;;;;;2.58;0.30;;;12.70;65.80;;;;;;5011363;28;20115;-78
2021/05/12 06:07:07;;;;;;;0.28;0.10;;;12.70;66.00;;;;;;5012633;28;20049;-78
2021/05/12 06:09:34;;;;;;;0.00;0.00;;;12.60;66.10;;;;;;4994508;28;20034;-78
2021/05/12 06:12:00;;;;;;;3.95;0.10;;;12.70;66.30;;;;;;5025012;28;20037;-78
2021/05/12 06:14:26;;;;;;;0.00;0.00;;;12.60;66.50;;;;;;5011328;28;20037;-79
2021/05/12 06:16:52;;;;;;;13.27;0.10;;;12.60;66.50;;;;;;5010503;28;20045;-78
2021/05/12 06:19:18;;;;;;;0.45;0.20;;;12.60;66.40;;;;;;5010911;28;20398;-78
2021/05/12 06:21:44;;;;;;;0.22;0.15;;;12.70;66.40;;;;;;5011528;28;20026;-76
2021/05/12 06:24:11;;;;;;;2.38;0.08;;;12.70;66.50;;;;;;4995712;28;20198;-77
2021/05/12 06:26:39;;;;;;;0.00;0.00;;;12.70;66.40;;;;;;5018844;28;20037;-77
2021/05/12 06:29:05;;;;;;;3.90;0.10;;;12.70;66.30;;;;;;5010873;28;20030;-77
2021/05/12 06:31:31;;;;;;;0.10;0.10;;;12.80;66.30;;;;;;5007392;28;20415;-80
2021/05/12 06:33:59;;;;;;;0.10;0.00;;;12.80;66.30;;;;;;5013766;28;20049;-79
2021/05/12 06:36:25;;;;;;;0.13;0.00;;;12.80;66.30;;;;;;4999198;28;20022;-79
2021/05/12 06:38:51;;;;;;;13.77;0.43;;;12.80;66.60;;;;;;5009127;28;20487;-77
2021/05/12 06:41:17;;;;;;;0.05;0.05;;;12.80;66.70;;;;;;5003450;28;20053;-78
2021/05/12 06:43:43;;;;;;;0.22;0.00;;;12.80;66.80;;;;;;5017693;28;20391;-78
2021/05/12 06:46:09;;;;;;;0.00;0.00;;;12.70;66.70;;;;;;5011079;28;20034;-79
2021/05/12 06:48:35;;;;;;;0.00;0.00;;;12.80;66.80;;;;;;5008747;28;20029;-81
2021/05/12 06:51:02;;;;;;;8.07;0.17;;;12.80;66.80;;;;;;5030857;28;20035;-79
2021/05/12 06:53:29;;;;;;;0.47;0.05;;;12.80;67.00;;;;;;5019131;28;20508;-77
2021/05/12 06:55:56;;;;;;;0.00;0.00;;;12.80;67.00;;;;;;5007422;28;20030;-83
2021/05/12 06:58:22;;;;;;;0.00;0.00;;;12.80;67.20;;;;;;5008435;28;20479;-82
2021/05/12 07:00:50;;;;;;;1.73;0.03;;;12.80;67.30;;;;;;4991899;28;20034;-81
2021/05/12 07:03:22;;;;;;;0.25;0.10;;;12.80;67.30;;;;;;5003738;28;20038;-81
2021/05/12 07:05:50;;;;;;;0.10;0.05;;;12.80;67.40;;;;;;5039188;28;20030;-79
2021/05/12 07:08:17;;;;;;;1.13;0.13;;;12.80;67.50;;;;;;5021921;28;20045;-84
2021/05/12 07:10:43;;;;;;;5.93;1.08;;;12.80;67.40;;;;;;5006674;28;20483;-79
2021/05/12 07:13:09;;;;;;;0.00;0.00;;;12.80;67.60;;;;;;5014266;28;20030;-80
2021/05/12 07:15:35;;;;;;;2.67;0.25;;;12.80;67.70;;;;;;5037968;28;20034;-79
2021/05/12 07:18:01;;;;;;;4.13;0.63;;;12.80;67.70;;;;;;5019390;28;20046;-81
2021/05/12 07:20:27;;;;;;;1.45;0.55;;;12.80;67.80;;;;;;5007275;28;20030;-81
2021/05/12 07:23:02;;;;;;;0.82;0.28;;;12.80;68.00;;;;;;4999443;28;20046;-81
2021/05/12 07:25:28;;;;;;;8.10;0.25;;;12.80;68.10;;;;;;4997519;28;20376;-82
2021/05/12 07:27:54;;;;;;;0.52;0.10;;;12.70;68.10;;;;;;5011309;28;20054;-81
2021/05/12 07:30:20;;;;;;;0.70;0.30;;;12.80;68.10;;;;;;5005728;28;20042;-82
2021/05/12 07:32:48;;;;;;;0.85;0.20;;;12.80;68.10;;;;;;5032707;28;20049;-81
2021/05/12 07:35:15;;;;;;;2.85;0.15;;;12.80;68.30;;;;;;5006284;28;20374;-79
2021/05/12 07:37:41;;;;;;;3.05;0.05;;;12.70;68.40;;;;;;5032706;28;20053;-81
2021/05/12 07:40:07;;;;;;;2.60;0.28;;;12.80;68.40;;;;;;5012344;28;20398;-81
2021/05/12 07:42:35;;;;;;;0.10;0.00;;;12.70;68.40;;;;;;4999024;28;20026;-81
2021/05/12 07:45:01;;;;;;;0.00;0.00;;;12.70;68.40;;;;;;5005133;28;20056;-82
2021/05/12 07:47:27;;;;;;;0.20;0.10;;;12.70;68.40;;;;;;5006162;28;20053;-79
2021/05/12 07:49:53;;;;;;;3.03;0.40;;;12.70;68.40;;;;;;5000156;28;20042;-81
2021/05/12 07:52:19;;;;;;;0.00;0.00;;;12.70;68.50;;;;;;5005714;28;20041;-80
2021/05/12 07:54:48;;;;;;;0.08;0.00;;;12.70;68.50;;;;;;5019153;28;20049;-79
2021/05/12 07:57:14;;;;;;;4.28;0.38;;;12.70;68.50;;;;;;4998472;28;20034;-78
2021/05/12 07:59:40;;;;;;;5.55;0.22;;;12.70;68.50;;;;;;5009037;28;20038;-81
2021/05/12 08:02:06;;;;;;;10.57;0.20;;;12.80;68.60;;;;;;4997840;28;20038;-80
2021/05/12 08:04:33;;;;;;;0.00;0.00;;;12.80;68.60;;;;;;4999386;28;20034;-81
2021/05/12 08:06:59;;;;;;;0.10;0.00;;;12.80;68.50;;;;;;4980574;28;20089;-81
2021/05/12 08:09:25;;;;;;;1.92;0.20;;;12.90;68.60;;;;;;5003210;28;20050;-81
2021/05/12 08:11:52;;;;;;;0.00;0.00;;;12.90;68.60;;;;;;5008869;28;20054;-80
2021/05/12 08:14:18;;;;;;;1.77;0.30;;;13.00;68.70;;;;;;4991450;28;20042;-81
2021/05/12 08:16:46;;;;;;;6.10;0.35;;;13.00;68.70;;;;;;5009025;28;20415;-80
2021/05/12 08:19:13;;;;;;;0.00;0.00;;;13.10;68.60;;;;;;5008462;28;20101;-80
2021/05/12 08:21:40;;;;;;;1.55;0.45;;;13.10;68.40;;;;;;5005645;28;20046;-81
2021/05/12 08:24:06;;;;;;;0.08;0.00;;;13.20;68.70;;;;;;4986564;28;20049;-80
2021/05/12 08:26:32;;;;;;;0.93;0.20;;;13.20;68.90;;;;;;5000128;28;20054;-80
2021/05/12 08:28:59;;;;;;;0.25;0.00;;;13.10;68.80;;;;;;4999647;28;20412;-81
2021/05/12 08:31:30;;;;;;;1.88;0.10;;;13.20;68.70;;;;;;4999192;28;20042;-80
2021/05/12 08:33:56;;;;;;;10.32;0.30;;;13.30;68.70;;;;;;5023783;28;20042;-81
2021/05/12 08:36:22;;;;;;;0.30;0.10;;;13.30;68.60;;;;;;5033040;28;20045;-80
2021/05/12 08:38:48;;;;;;;0.40;0.03;;;13.40;68.70;;;;;;4999344;28;20042;-80
2021/05/12 08:41:15;;;;;;;0.75;0.00;;;13.40;68.60;;;;;;5003591;28;20057;-80
2021/05/12 08:43:41;;;;;;;1.27;0.20;;;13.50;68.60;;;;;;5005358;28;20038;-83
2021/05/12 08:46:11;;;;;;;5.47;0.10;;;13.50;68.40;;;;;;5039086;28;20048;-82
2021/05/12 08:48:37;;;;;;;0.20;0.00;;;13.60;68.40;;;;;;4997217;28;20029;-80
2021/05/12 08:51:04;;;;;;;0.30;0.10;;;13.60;68.30;;;;;;5028687;28;20460;-80
2021/05/12 08:53:30;;;;;;;0.00;0.00;;;13.70;68.40;;;;;;5017040;28;20042;-80
2021/05/12 08:55:57;;;;;;;8.43;0.30;;;13.70;68.40;;;;;;4999995;28;20042;-81
2021/05/12 08:58:23;;;;;;;0.10;0.00;;;13.70;68.50;;;;;;5004101;28;20038;-82
2021/05/12 09:00:49;;;;;;;7.65;2.90;;;13.70;68.50;;;;;;5009596;28;20546;-80
2021/05/12 09:03:16;;;;;;;6.53;1.33;;;13.80;68.50;;;;;;5003080;28;20041;-79
2021/05/12 09:05:42;;;;;;;4.78;1.65;;;13.80;68.40;;;;;;5004527;28;20458;-81
2021/05/12 09:08:09;;;;;;;11.40;3.95;;;13.80;68.30;;;;;;5004809;28;20077;-82
2021/05/12 09:10:35;;;;;;;3.10;1.05;;;13.90;68.40;;;;;;5007415;28;20041;-80
2021/05/12 09:13:01;;;;;;;3.75;2.70;;;14.00;68.40;;;;;;5013073;28;20041;-81
2021/05/12 09:15:28;;;;;;;8.00;2.08;;;14.00;68.40;;;;;;5004552;28;20038;-82
2021/05/12 09:17:56;;;;;;;8.40;3.33;;;14.00;68.60;;;;;;5030125;28;20041;-81
2021/05/12 09:20:24;;;;;;;8.23;1.65;;;14.10;68.60;;;;;;4999297;28;20046;-78
2021/05/12 09:23:06;;;;;;;1.77;0.40;;;14.10;68.60;;;;;;5009414;28;20034;-82
2021/05/12 09:25:33;;;;;;;2.13;1.05;;;14.10;68.80;;;;;;5020005;28;20057;-82
2021/05/12 09:28:16;;;;;;;10.70;1.52;;;14.10;68.80;;;;;;5023176;28;20042;-81
2021/05/12 09:30:43;;;;;;;1.13;0.05;;;14.20;68.90;;;;;;5007253;28;20428;-81
2021/05/12 09:33:11;;;;;;;2.53;0.82;;;14.20;68.70;;;;;;5011446;28;20466;-78
2021/05/12 09:35:41;;;;;;;1.42;0.50;;;14.30;68.70;;;;;;5001259;28;20050;-82
2021/05/12 09:38:16;;;;;;;2.97;0.20;;;14.40;68.70;;;;;;5025575;28;20387;-82
2021/05/12 09:40:42;;;;;;;5.22;0.47;;;14.40;68.80;;;;;;5003799;28;20045;-80
2021/05/12 09:43:10;;;;;;;3.75;0.82;;;14.40;68.70;;;;;;5012682;28;20061;-81
2021/05/12 09:45:38;;;;;;;2.85;0.60;;;14.50;68.60;;;;;;5002267;28;20034;-81
2021/05/12 09:48:05;;;;;;;0.65;0.47;;;14.60;68.50;;;;;;5042716;28;20069;-80
2021/05/12 09:50:35;;;;;;;1.85;0.65;;;14.70;68.50;;;;;;5020318;28;20041;-80
2021/05/12 09:53:03;;;;;;;0.00;0.00;;;14.80;68.60;;;;;;5003610;28;20058;-81
2021/05/12 09:55:48;;;;;;;0.43;0.20;;;14.80;68.60;;;;;;5000481;28;20037;-80
2021/05/12 09:58:18;;;;;;;0.00;0.00;;;14.90;68.70;;;;;;5010819;28;20376;-79
2021/05/12 10:00:45;;;;;;;0.52;0.20;;;14.90;68.70;;;;;;5001935;28;20037;-80
2021/05/12 10:03:13;;;;;;;1.35;0.05;;;14.90;68.70;;;;;;5001206;28;20525;-83
2021/05/12 10:05:58;;;;;;;0.13;0.10;;;15.00;68.50;;;;;;5010876;28;20030;-82
2021/05/12 10:08:25;;;;;;;0.10;0.10;;;15.10;68.20;;;;;;5016364;28;20042;-82
2021/05/12 10:10:55;;;;;;;0.00;0.00;;;15.20;68.10;;;;;;5020798;28;20056;-83
2021/05/12 10:13:21;;;;;;;0.10;0.00;;;15.30;67.90;;;;;;5004430;28;20033;-80
2021/05/12 10:15:48;;;;;;;1.58;0.20;;;15.50;67.80;;;;;;5028210;28;20388;-78
2021/05/12 10:18:14;;;;;;;0.00;0.00;;;15.60;67.60;;;;;;5010553;28;20053;-79
2021/05/12 10:20:40;;;;;;;0.00;0.00;;;15.80;67.30;;;;;;5043364;28;20049;-78
2021/05/12 10:23:06;;;;;;;0.10;0.00;;;15.90;67.20;;;;;;5005404;28;20037;-79
2021/05/12 10:25:33;;;;;;;7.97;0.35;;;16.00;66.90;;;;;;5008144;28;20041;-80
2021/05/12 10:28:00;;;;;;;1.20;0.65;;;16.20;66.60;;;;;;5011693;28;20046;-79
2021/05/12 10:30:27;;;;;;;0.55;0.13;;;16.40;66.20;;;;;;5003630;28;20034;-79
2021/05/12 10:32:56;;;;;;;0.00;0.00;;;16.60;65.80;;;;;;5003939;28;20467;-79
2021/05/12 10:35:35;;;;;;;0.00;0.00;;;16.80;65.50;;;;;;5005861;28;20046;-81
2021/05/12 10:38:02;;;;;;;2.55;0.60;;;17.00;64.90;;;;;;5040374;28;20046;-80
2021/05/12 10:40:34;;;;;;;0.13;0.13;;;17.00;64.60;;;;;;5008286;28;20033;-78
2021/05/12 10:43:12;;;;;;;0.10;0.00;;;17.10;64.40;;;;;;5011076;28;20034;-78
2021/05/12 10:48:47;;;;;;;0.10;0.00;;;17.00;64.10;;;;;;5011531;28;20037;-82
2021/05/12 10:51:23;;;;;;;0.50;0.28;;;17.00;64.10;;;;;;5024869;28;20402;-80
2021/05/12 10:53:50;;;;;;;0.00;0.00;;;17.00;63.70;;;;;;5003126;28;20046;-80
2021/05/12 10:56:32;;;;;;;0.65;0.00;;;17.10;63.30;;;;;;4999345;28;20030;-80
2021/05/12 10:59:00;;;;;;;0.00;0.00;;;17.10;62.90;;;;;;5018741;28;20041;-79
2021/05/12 11:01:29;;;;;;;0.20;0.10;;;17.20;62.90;;;;;;4997761;28;20038;-79
2021/05/12 11:03:55;;;;;;;0.47;0.43;;;17.40;62.60;;;;;;5006900;28;20041;-77
2021/05/12 11:06:22;;;;;;;0.38;0.10;;;17.40;62.40;;;;;;5009889;28;20341;-80
2021/05/12 11:09:08;;;;;;;0.45;0.10;;;17.30;62.20;;;;;;5040195;28;20389;-81
2021/05/12 11:11:53;;;;;;;3.20;0.08;;;17.20;62.30;;;;;;5006791;28;20513;-81
2021/05/12 11:14:32;;;;;;;0.47;0.20;;;17.10;62.40;;;;;;4996973;28;20046;-81
2021/05/12 11:17:15;;;;;;;0.20;0.00;;;17.10;62.00;;;;;;5010142;28;20030;-81
2021/05/12 11:19:46;;;;;;;0.17;0.00;;;17.00;62.10;;;;;;5006456;28;20033;-81
2021/05/12 11:25:15;;;;;;;0.13;0.00;;;16.80;61.70;;;;;;5010481;28;20038;-81
2021/05/12 11:31:27;;;;;;;0.47;0.10;;;16.80;61.70;;;;;;5013388;28;20033;-81
2021/05/12 11:33:53;;;;;;;2.00;0.17;;;16.90;61.60;;;;;;5003143;28;20472;-81
2021/05/12 11:36:22;;;;;;;0.15;0.00;;;17.00;61.30;;;;;;5009619;28;20483;-81
2021/05/12 11:38:50;;;;;;;0.00;0.00;;;17.10;61.30;;;;;;5015749;28;20061;-81
2021/05/12 11:41:17;;;;;;;0.10;0.10;;;17.20;61.10;;;;;;5006923;28;20064;-81
2021/05/12 11:44:02;;;;;;;0.00;0.00;;;17.30;60.90;;;;;;5010572;28;20030;-81
2021/05/12 11:46:29;;;;;;;4.03;0.08;;;17.30;60.40;;;;;;5009879;28;20034;-83
2021/05/12 11:48:57;;;;;;;0.30;0.30;;;17.30;60.30;;;;;;5009142;28;20046;-81
2021/05/12 11:51:27;;;;;;;2.45;0.15;;;17.30;60.30;;;;;;5009181;28;20084;-80
2021/05/12 11:53:54;;;;;;;0.00;0.00;;;17.40;60.10;;;;;;5028041;28;20610;-81
2021/05/12 11:56:20;;;;;;;0.08;0.00;;;17.50;59.80;;;;;;5004787;28;20403;-80
2021/05/12 11:58:57;;;;;;;0.00;0.00;;;17.60;60.50;;;;;;5008466;28;20380;-81
2021/05/12 12:01:23;;;;;;;0.45;0.43;;;17.70;59.60;;;;;;5007737;28;20030;-81
2021/05/12 12:04:13;;;;;;;0.10;0.00;;;17.80;59.20;;;;;;5010403;28;20030;-81
2021/05/12 12:06:40;;;;;;;0.73;0.10;;;17.70;58.80;;;;;;5009031;28;20034;-82
2021/05/12 12:09:07;;;;;;;0.20;0.03;;;17.70;58.70;;;;;;5023998;28;20034;-81
2021/05/12 12:11:33;;;;;;;0.00;0.00;;;17.80;58.70;;;;;;5006523;28;20039;-81
2021/05/12 12:14:00;;;;;;;0.00;0.00;;;18.00;58.50;;;;;;5008092;28;20065;-81
2021/05/12 12:16:26;;;;;;;0.10;0.00;;;18.20;58.20;;;;;;5006906;28;20034;-82
2021/05/12 12:18:53;;;;;;;0.05;0.00;;;18.40;57.60;;;;;;5007594;28;20089;-81
2021/05/12 12:21:27;;;;;;;0.00;0.00;;;18.30;57.10;;;;;;5009363;28;20042;-82
2021/05/12 12:23:53;;;;;;;0.20;0.00;;;18.20;57.20;;;;;;5031280;28;20034;-82
2021/05/12 12:26:19;;;;;;;0.00;0.00;;;18.20;57.40;;;;;;5004954;28;20026;-81
2021/05/12 12:28:48;;;;;;;1.08;0.03;;;18.30;57.30;;;;;;5009803;28;20037;-82
2021/05/12 12:31:21;;;;;;;0.00;0.00;;;18.40;57.40;;;;;;5007004;28;20403;-81
2021/05/12 12:34:06;;;;;;;0.90;0.13;;;18.40;57.30;;;;;;5008403;28;20518;-82
2021/05/12 12:36:32;;;;;;;0.00;0.00;;;18.40;57.30;;;;;;5008598;28;20038;-81
2021/05/12 12:39:02;;;;;;;0.25;0.20;;;18.40;57.30;;;;;;5011201;28;20029;-82
2021/05/12 12:41:29;;;;;;;1.85;0.05;;;18.40;57.20;;;;;;5008185;28;20038;-81
2021/05/12 12:43:55;;;;;;;0.15;0.00;;;18.40;57.30;;;;;;5009551;28;20030;-82
2021/05/12 12:46:27;;;;;;;0.45;0.20;;;18.30;57.40;;;;;;5010399;28;20033;-81
2021/05/12 12:48:53;;;;;;;0.00;0.00;;;18.30;57.40;;;;;;5011625;28;20487;-80
2021/05/12 12:51:40;;;;;;;0.00;0.00;;;18.10;57.40;;;;;;4995503;28;20061;-81
2021/05/12 12:54:06;;;;;;;0.22;0.13;;;18.10;57.60;;;;;;5014883;28;20050;-81
2021/05/12 12:56:33;;;;;;;0.00;0.00;;;18.10;57.50;;;;;;5012300;28;20422;-81
2021/05/12 12:59:07;;;;;;;1.27;0.10;;;17.90;57.30;;;;;;5012737;28;20553;-81